MMCU/CUU METAR and TAF weather

Enter ICAO airport designator
Station Type Date Time Source
MMCU METAR 2020/12/05 03:40 UTC NOAA

MMCU 050340Z 32005KT 10SM SCT035 05/M08 A3021 RMK 8/400


Station Type Date Time Source
MMCU Decoded METAR 2020/12/05 03:40 UTC NOAA

Chihuahua International Airport, Mexico (MMCU) 28-42N 105-58W
Dec 04, 2020 - 10:40 PM EST / 2020.12.05 0340 UTC
Wind: from the NW (320 degrees) at 6 MPH (5 KT):0
Visibility: 10 mile(s):0
Sky conditions: partly cloudy
Temperature: 41 F (5 C)
Dew Point: 17 F (-8 C)
Relative Humidity: 38%
Pressure (altimeter): 30.21 in. Hg (1023 hPa)
ob: MMCU 050340Z 32005KT 10SM SCT035 05/M08 A3021 RMK 8/400
cycle: 3

Station Type Date Time Source
MMCU TAF 2020/12/05 06:43 UTC NOAA

TAF MMCU 050336Z 0506/0606 36008KT P6SM SCT030 BKN070
FM051600 36010KT P6SM SCT030 SCT070
FM060200 36005KT P6SM SCT250

Example: see airport list